Time;durP1;ratioP1;P1;durP2;ratioP2;P2;SDS_P1;SDS_P2;PMS_P1;PMS_P2;Temp;Humidity;BMP_temperature;BMP_pressure;BME280_temperature;BME280_humidity;BME280_pressure;Samples;Min_cycle;Max_cycle;Signal;HPM_P1;HPM_P2
2022/04/19 00:00:49;;;;;;;3.20;1.73;;;;;;;8.59;46.30;98694.94;5113636;28;43091;-75
2022/04/19 00:03:17;;;;;;;2.50;1.87;;;;;;;8.55;46.49;98688.13;5096220;28;41146;-75
2022/04/19 00:05:45;;;;;;;2.47;1.93;;;;;;;8.49;46.39;98692.91;5130730;27;39942;-75
2022/04/19 00:08:15;;;;;;;3.53;2.07;;;;;;;8.47;47.08;98684.22;5096134;28;40935;-75
2022/04/19 00:10:43;;;;;;;2.07;1.87;;;;;;;8.40;46.55;98685.53;5130542;27;42760;-75
2022/04/19 00:13:12;;;;;;;2.27;2.07;;;;;;;8.38;46.28;98687.38;5095610;28;42149;-76
2022/04/19 00:15:41;;;;;;;2.27;2.00;;;;;;;8.33;45.80;98681.50;5114452;28;40771;-76
2022/04/19 00:18:11;;;;;;;2.10;1.90;;;;;;;8.27;45.97;98678.25;5113207;28;41663;-75
2022/04/19 00:20:42;;;;;;;1.80;1.70;;;;;;;8.23;45.90;98682.00;5112866;28;44616;-75
2022/04/19 00:23:12;;;;;;;3.80;1.70;;;;;;;8.18;45.88;98684.03;5130337;27;42987;-76
2022/04/19 00:25:41;;;;;;;3.20;1.63;;;;;;;8.14;45.79;98673.75;5113399;28;39246;-75
2022/04/19 00:28:09;;;;;;;1.77;1.50;;;;;;;8.09;46.46;98671.34;5112530;28;43558;-76
2022/04/19 00:30:37;;;;;;;2.20;1.67;;;;;;;8.08;46.75;98668.78;5095753;28;41494;-75
2022/04/19 00:33:07;;;;;;;3.00;2.40;;;;;;;8.05;46.37;98669.81;5112689;28;41313;-75
2022/04/19 00:35:35;;;;;;;1.80;1.67;;;;;;;8.02;46.26;98667.38;5112915;28;40432;-75
2022/04/19 00:38:03;;;;;;;2.13;1.60;;;;;;;7.87;46.37;98644.47;5112450;28;42054;-76
2022/04/19 00:40:31;;;;;;;2.07;1.60;;;;;;;7.98;46.67;98664.97;5112678;28;42805;-75
2022/04/19 00:42:59;;;;;;;2.70;1.80;;;;;;;7.97;47.78;98650.94;5097801;28;41089;-76
2022/04/19 00:45:27;;;;;;;3.73;2.00;;;;;;;7.97;47.81;98644.81;5114417;28;38982;-76
2022/04/19 00:47:55;;;;;;;1.97;1.50;;;;;;;7.99;47.87;98649.06;5118842;28;40648;-76
2022/04/19 00:50:26;;;;;;;1.63;1.50;;;;;;;8.00;47.72;98644.66;5135952;27;43522;-77
2022/04/19 00:52:55;;;;;;;1.50;1.40;;;;;;;7.67;47.53;98586.72;5101603;28;42718;-76
2022/04/19 00:55:26;;;;;;;2.50;1.93;;;;;;;7.92;48.13;98623.97;5102058;28;38402;-77
2022/04/19 00:57:56;;;;;;;1.83;1.47;;;;;;;8.00;48.41;98631.47;5114878;28;42038;-77
2022/04/19 01:00:25;;;;;;;2.13;1.70;;;;;;;7.98;47.93;98633.34;5112361;28;43475;-75
2022/04/19 01:03:07;;;;;;;2.17;1.60;;;;;;;7.95;47.72;98629.06;5110050;28;42288;-75
2022/04/19 01:05:38;;;;;;;3.80;1.90;;;;;;;7.93;47.62;98637.06;5095230;28;41263;-76
2022/04/19 01:08:09;;;;;;;2.40;1.67;;;;;;;7.88;47.53;98633.84;5095024;28;41306;-75
2022/04/19 01:10:39;;;;;;;2.93;2.03;;;;;;;7.84;48.01;98623.53;5129509;27;42845;-75
2022/04/19 01:13:20;;;;;;;2.00;1.60;;;;;;;7.82;48.57;98622.78;5129158;27;43029;-76
2022/04/19 01:15:53;;;;;;;1.70;1.43;;;;;;;7.63;48.97;98590.47;5095287;28;38782;-76
2022/04/19 01:18:23;;;;;;;1.90;1.80;;;;;;;7.77;48.53;98619.56;5111935;28;41544;-75
2022/04/19 01:20:55;;;;;;;1.77;1.67;;;;;;;7.75;48.45;98616.16;5128678;27;42721;-75
2022/04/19 01:23:26;;;;;;;2.17;1.70;;;;;;;7.74;49.92;98614.44;5094934;28;44511;-76
2022/04/19 01:25:54;;;;;;;2.83;1.80;;;;;;;7.71;49.66;98610.19;5112027;28;39907;-75
2022/04/19 01:28:22;;;;;;;2.77;1.90;;;;;;;7.72;49.77;98608.41;5111381;28;41739;-76
2022/04/19 01:30:54;;;;;;;2.30;1.70;;;;;;;7.71;49.55;98611.97;5094903;28;42694;-75
2022/04/19 01:33:23;;;;;;;2.60;1.73;;;;;;;7.69;49.33;98611.19;5127186;27;42248;-76
2022/04/19 01:35:51;;;;;;;2.00;1.77;;;;;;;7.67;49.73;98613.06;5111997;28;39843;-76
2022/04/19 01:38:19;;;;;;;2.27;1.93;;;;;;;7.63;49.56;98608.91;5111577;28;41351;-76
2022/04/19 01:40:48;;;;;;;2.73;1.60;;;;;;;7.56;49.60;98605.75;5128998;27;42971;-76
2022/04/19 01:43:34;;;;;;;2.63;2.07;;;;;;;7.50;49.44;98601.69;5111053;28;42346;-76
2022/04/19 01:46:02;;;;;;;2.13;1.90;;;;;;;7.43;49.49;98616.09;5094648;28;38942;-76
2022/04/19 01:48:30;;;;;;;1.53;1.40;;;;;;;7.36;49.56;98613.88;5094438;28;41730;-76
2022/04/19 01:50:58;;;;;;;1.87;1.67;;;;;;;7.19;49.56;98597.19;5111598;28;41671;-76
2022/04/19 01:53:27;;;;;;;2.43;1.53;;;;;;;7.14;49.35;98595.75;5110931;28;42479;-76
2022/04/19 01:55:58;;;;;;;2.03;1.63;;;;;;;7.13;49.47;98610.69;5111881;28;41521;-75
2022/04/19 01:58:44;;;;;;;1.80;1.40;;;;;;;7.04;49.40;98608.53;5111216;28;40716;-75
2022/04/19 02:01:13;;;;;;;2.27;1.80;;;;;;;6.84;49.65;98580.59;5111506;28;41871;-75
2022/04/19 02:03:42;;;;;;;1.90;1.80;;;;;;;6.84;49.68;98585.88;5093947;28;41743;-75
2022/04/19 02:06:14;;;;;;;1.40;1.30;;;;;;;6.75;49.89;98582.88;5094799;28;40095;-76
2022/04/19 02:08:43;;;;;;;1.37;1.27;;;;;;;6.80;50.12;98591.34;5094053;28;41290;-76
2022/04/19 02:11:21;;;;;;;3.27;1.80;;;;;;;6.75;50.40;98590.75;5094628;28;41911;-76
2022/04/19 02:14:04;;;;;;;1.73;1.63;;;;;;;6.69;50.73;98591.91;5128163;27;43181;-75
2022/04/19 02:16:37;;;;;;;3.30;2.00;;;;;;;6.66;51.88;98589.47;5111257;28;38454;-76
2022/04/19 02:19:06;;;;;;;1.73;1.40;;;;;;;6.59;52.21;98582.78;5109946;28;41495;-76
2022/04/19 02:21:34;;;;;;;2.47;2.00;;;;;;;6.63;52.10;98591.38;5110847;28;42382;-76
2022/04/19 02:24:02;;;;;;;2.03;1.60;;;;;;;6.56;51.71;98587.34;5110852;28;42589;-76
2022/04/19 02:26:32;;;;;;;2.40;2.20;;;;;;;6.60;51.41;98596.78;5094391;28;38993;-76
2022/04/19 02:29:01;;;;;;;1.93;1.83;;;;;;;6.57;51.00;98592.53;5128033;27;41725;-76
2022/04/19 02:31:35;;;;;;;2.90;1.83;;;;;;;6.57;51.09;98594.31;5094088;28;43349;-75
2022/04/19 02:34:03;;;;;;;2.10;1.77;;;;;;;6.55;50.89;98599.69;5093785;28;41347;-76
2022/04/19 02:36:31;;;;;;;2.37;1.73;;;;;;;6.55;50.55;98615.47;5094067;28;38882;-76
2022/04/19 02:38:59;;;;;;;2.23;1.93;;;;;;;6.52;50.62;98602.44;5110676;28;41882;-75
2022/04/19 02:41:28;;;;;;;1.93;1.70;;;;;;;6.50;50.46;98604.31;5110297;28;43085;-76
2022/04/19 02:44:03;;;;;;;2.07;1.60;;;;;;;6.42;50.46;98588.06;5126639;27;42885;-75
2022/04/19 02:46:33;;;;;;;1.73;1.63;;;;;;;6.44;51.02;98596.69;5093783;28;39893;-76
2022/04/19 02:49:05;;;;;;;2.03;1.50;;;;;;;6.39;51.06;98582.94;5105629;27;41109;-76
2022/04/19 02:51:33;;;;;;;2.13;1.53;;;;;;;6.44;50.67;98591.44;5114146;27;41855;-76
2022/04/19 02:54:02;;;;;;;2.13;1.60;;;;;;;6.41;50.65;98583.72;5130852;27;43425;-76
2022/04/19 02:56:30;;;;;;;2.10;1.50;;;;;;;6.40;51.01;98589.91;5114363;27;40260;-75
2022/04/19 02:58:59;;;;;;;1.83;1.70;;;;;;;6.36;50.79;98589.22;5113683;27;40855;-76
2022/04/19 03:01:29;;;;;;;1.60;1.37;;;;;;;6.24;51.49;98573.19;5113963;27;41652;-75
2022/04/19 03:04:00;;;;;;;1.97;1.60;;;;;;;6.35;51.56;98586.66;5113873;27;44022;-75
2022/04/19 03:06:27;;;;;;;2.27;1.80;;;;;;;6.36;51.54;98583.94;5131306;27;39797;-76
2022/04/19 03:08:57;;;;;;;2.23;1.63;;;;;;;6.35;52.09;98586.66;5113427;27;41794;-75
2022/04/19 03:11:24;;;;;;;1.50;1.40;;;;;;;6.35;52.50;98582.25;5114034;27;41902;-76
2022/04/19 03:13:52;;;;;;;2.63;1.80;;;;;;;6.37;53.05;98576.91;5130778;27;43253;-75
2022/04/19 03:16:22;;;;;;;4.27;2.27;;;;;;;6.37;52.66;98579.53;5094077;28;39071;-75
2022/04/19 03:18:51;;;;;;;2.37;1.87;;;;;;;6.36;53.05;98578.69;5092890;28;40638;-75
2022/04/19 03:21:19;;;;;;;2.77;1.90;;;;;;;6.35;52.83;98576.13;5107213;28;43798;-76
2022/04/19 03:29:19;;;;;;;2.17;1.97;;;;;;;6.23;52.35;98577.59;5109650;28;41603;-76
2022/04/19 03:31:47;;;;;;;1.83;1.53;;;;;;;6.19;52.13;98575.19;5093314;28;43254;-75
2022/04/19 03:34:18;;;;;;;2.13;1.77;;;;;;;6.10;52.15;98566.81;5092775;28;41125;-75
2022/04/19 03:36:47;;;;;;;2.17;1.53;;;;;;;6.03;52.16;98568.06;5093513;28;40971;-75
2022/04/19 03:39:14;;;;;;;3.57;2.10;;;;;;;5.98;52.17;98577.94;5111119;28;41681;-76
2022/04/19 03:41:42;;;;;;;2.60;1.90;;;;;;;5.92;52.36;98572.13;5093051;28;42960;-76
2022/04/19 03:44:11;;;;;;;3.83;2.13;;;;;;;5.83;52.58;98573.38;5092706;28;41208;-76
2022/04/19 03:47:07;;;;;;;2.60;1.70;;;;;;;5.75;52.65;98565.88;5110238;28;39021;-75
2022/04/19 03:49:28;;;;;;;2.00;1.63;;;;;;;5.69;53.10;98562.66;5092259;28;40677;-76
2022/04/19 03:51:55;;;;;;;2.00;1.80;;;;;;;5.62;53.50;98563.91;5093681;28;44372;-76
2022/04/19 03:54:23;;;;;;;1.97;1.80;;;;;;;5.58;54.42;98557.94;5113243;28;42241;-76
2022/04/19 03:56:51;;;;;;;2.17;1.77;;;;;;;5.53;54.77;98551.22;5096578;28;39212;-75
2022/04/19 03:59:19;;;;;;;2.03;1.80;;;;;;;5.50;54.11;98561.84;5095612;28;40767;-75
2022/04/19 04:01:46;;;;;;;2.43;1.97;;;;;;;5.46;53.83;98568.16;5113390;28;43402;-76
2022/04/19 04:04:14;;;;;;;2.33;1.67;;;;;;;5.40;53.98;98564.91;5095825;28;42562;-76
2022/04/19 04:06:44;;;;;;;2.37;2.00;;;;;;;5.37;53.85;98565.03;5096075;28;39066;-76
2022/04/19 04:09:11;;;;;;;2.03;1.70;;;;;;;5.34;53.63;98575.69;5112734;28;41911;-76
2022/04/19 04:11:39;;;;;;;2.33;1.60;;;;;;;5.30;53.97;98568.88;5113156;28;44070;-76
2022/04/19 04:14:18;;;;;;;1.63;1.53;;;;;;;5.25;54.00;98572.63;5112276;28;42609;-76
2022/04/19 04:16:46;;;;;;;2.73;1.67;;;;;;;5.16;53.89;98566.03;5095961;28;40433;-76
2022/04/19 04:19:14;;;;;;;2.30;2.07;;;;;;;5.20;54.21;98566.72;5095380;28;40805;-76
2022/04/19 04:21:43;;;;;;;2.33;1.73;;;;;;;5.15;54.15;98564.31;5095668;28;43137;-76
2022/04/19 04:24:11;;;;;;;1.90;1.77;;;;;;;5.13;54.24;98566.16;5095159;28;43551;-76
2022/04/19 04:26:43;;;;;;;2.43;1.80;;;;;;;5.11;54.14;98565.38;5096110;28;39761;-76
2022/04/19 04:29:13;;;;;;;2.43;1.67;;;;;;;5.08;54.27;98576.00;5095406;28;41862;-76
2022/04/19 04:31:42;;;;;;;1.53;1.43;;;;;;;5.01;54.32;98562.31;5095846;28;43274;-75
2022/04/19 04:34:15;;;;;;;2.40;2.20;;;;;;;5.01;54.43;98561.47;5112204;28;42236;-76
2022/04/19 04:36:45;;;;;;;2.20;2.00;;;;;;;5.07;54.26;98576.91;5095718;28;38971;-79
2022/04/19 04:39:18;;;;;;;1.87;1.70;;;;;;;5.06;54.84;98575.25;5112262;28;42495;-76
2022/04/19 04:42:18;;;;;;;2.60;2.03;;;;;;;5.05;55.10;98571.78;5089459;28;43170;-76
2022/04/19 04:44:46;;;;;;;3.43;2.30;;;;;;;5.08;57.21;98568.13;5095552;28;42850;-76
2022/04/19 04:49:59;;;;;;;1.93;1.70;;;;;;;5.01;55.95;98557.06;5095136;28;40793;-76
2022/04/19 04:52:28;;;;;;;3.03;2.30;;;;;;;5.13;55.60;98576.66;5112810;27;42799;-76
2022/04/19 04:54:57;;;;;;;3.20;1.73;;;;;;;5.16;55.32;98576.53;5075072;28;42382;-76
2022/04/19 04:57:28;;;;;;;2.87;2.23;;;;;;;5.20;55.19;98578.06;5088746;28;40945;-76
2022/04/19 04:59:56;;;;;;;3.50;1.93;;;;;;;5.24;55.00;98579.66;5075857;28;41701;-76
2022/04/19 05:02:25;;;;;;;1.63;1.47;;;;;;;5.28;54.92;98581.22;5074172;28;43670;-76
2022/04/19 05:04:54;;;;;;;2.43;1.77;;;;;;;5.36;54.86;98580.88;5075024;28;42656;-76
2022/04/19 05:07:22;;;;;;;2.33;1.80;;;;;;;5.45;54.62;98584.84;5074693;28;38760;-77
2022/04/19 05:09:58;;;;;;;3.23;2.47;;;;;;;5.53;54.88;98585.34;5074630;28;41659;-76
2022/04/19 05:12:26;;;;;;;1.93;1.73;;;;;;;5.66;55.78;98582.09;5093200;28;42778;-76
2022/04/19 05:14:55;;;;;;;4.17;2.17;;;;;;;5.65;55.56;98563.75;5095088;28;41324;-76
2022/04/19 05:17:23;;;;;;;3.83;2.23;;;;;;;5.85;55.49;98582.03;5112141;28;41883;-76
2022/04/19 05:19:53;;;;;;;2.77;1.90;;;;;;;5.96;54.88;98592.06;5111512;28;41925;-76
2022/04/19 05:22:21;;;;;;;1.90;1.70;;;;;;;6.04;54.57;98590.81;5094764;28;41845;-76
2022/04/19 05:24:51;;;;;;;2.43;1.93;;;;;;;6.13;54.56;98587.72;5111860;28;42364;-76
2022/04/19 05:27:21;;;;;;;2.80;2.30;;;;;;;6.13;54.61;98576.34;5111778;28;40975;-76
2022/04/19 05:29:51;;;;;;;3.57;2.30;;;;;;;6.33;54.39;98599.88;5094811;28;40516;-76
2022/04/19 05:32:20;;;;;;;2.70;1.90;;;;;;;6.44;54.16;98600.19;5094479;28;42934;-76
2022/04/19 05:34:49;;;;;;;2.17;1.97;;;;;;;6.60;53.83;98599.44;5094586;28;42083;-76
2022/04/19 05:37:18;;;;;;;2.87;2.27;;;;;;;6.74;53.70;98600.44;5111833;28;39989;-76
2022/04/19 05:39:46;;;;;;;2.83;1.80;;;;;;;6.90;53.12;98610.19;5111344;28;42728;-77
2022/04/19 05:42:15;;;;;;;3.60;2.10;;;;;;;6.99;53.11;98599.16;5111540;28;43849;-74
2022/04/19 05:44:45;;;;;;;2.53;2.10;;;;;;;7.08;53.30;98593.41;5094510;28;42656;-76
2022/04/19 05:47:16;;;;;;;2.50;1.80;;;;;;;7.17;53.41;98596.41;5108724;28;40780;-75
2022/04/19 05:49:45;;;;;;;3.50;2.60;;;;;;;7.25;53.62;98590.75;5111514;28;41770;-76
2022/04/19 05:52:14;;;;;;;4.00;2.67;;;;;;;7.35;54.24;98591.97;5111533;28;43704;-75
2022/04/19 05:54:42;;;;;;;3.70;2.50;;;;;;;7.44;54.59;98586.19;5094204;28;41415;-75
2022/04/19 05:57:10;;;;;;;3.53;2.50;;;;;;;7.49;54.48;98585.94;5094230;28;41330;-76
2022/04/19 05:59:38;;;;;;;2.80;2.50;;;;;;;7.51;54.44;98571.75;5111358;28;40117;-76
2022/04/19 06:04:57;;;;;;;5.07;2.40;;;;;;;7.93;54.03;98591.38;5108417;28;43134;-76
2022/04/19 06:07:29;;;;;;;4.47;3.30;;;;;;;8.11;54.22;98581.59;5108345;28;40714;-76
2022/04/19 06:10:00;;;;;;;3.00;2.70;;;;;;;8.37;54.06;98593.34;5094035;28;40644;-76
2022/04/19 06:12:28;;;;;;;6.03;2.67;;;;;;;8.54;53.92;98595.81;5093860;28;42065;-76
2022/04/19 06:14:57;;;;;;;3.97;2.83;;;;;;;8.70;53.37;98591.34;5093109;28;41239;-76
2022/04/19 06:17:32;;;;;;;4.73;3.20;;;;;;;8.80;53.18;98591.66;5094102;28;38813;-76
2022/04/19 06:20:06;;;;;;;4.00;2.80;;;;;;;8.91;53.28;98600.63;5093272;28;41719;-75
2022/04/19 06:22:34;;;;;;;3.87;2.70;;;;;;;9.03;52.51;98591.13;5110983;28;43558;-76
2022/04/19 06:25:08;;;;;;;3.80;2.57;;;;;;;9.32;52.25;98594.63;5093535;28;42305;-76
2022/04/19 06:27:35;;;;;;;5.23;2.50;;;;;;;9.59;51.61;98597.38;5111165;28;39630;-76
2022/04/19 06:30:06;;;;;;;3.03;2.50;;;;;;;9.92;51.00;98602.31;5093314;28;40604;-76
2022/04/19 06:32:36;;;;;;;3.03;2.70;;;;;;;10.03;50.62;98603.31;5093917;28;41746;-76
2022/04/19 06:35:05;;;;;;;2.60;2.40;;;;;;;10.12;50.10;98607.19;5093369;28;41241;-76
2022/04/19 06:37:36;;;;;;;3.33;2.53;;;;;;;10.22;50.43;98608.31;5094205;28;39195;-76
2022/04/19 06:40:10;;;;;;;2.90;2.60;;;;;;;10.35;50.22;98613.66;5110074;28;41877;-76
2022/04/19 06:42:38;;;;;;;3.63;2.93;;;;;;;10.45;49.75;98614.75;5110507;28;42677;-76
2022/04/19 06:45:21;;;;;;;2.50;2.27;;;;;;;10.59;49.18;98622.63;5110815;28;43289;-76
2022/04/19 06:48:06;;;;;;;4.70;2.70;;;;;;;10.77;48.53;98620.53;5093895;28;38749;-77
2022/04/19 06:50:36;;;;;;;4.40;3.10;;;;;;;11.03;47.58;98617.00;5093275;28;41653;-77
2022/04/19 06:53:11;;;;;;;4.23;3.47;;;;;;;11.24;46.05;98630.59;5095756;28;41759;-77
2022/04/19 06:56:03;;;;;;;3.13;2.70;;;;;;;11.45;46.20;98626.44;5090235;28;43287;-76
2022/04/19 06:58:31;;;;;;;2.93;2.57;;;;;;;11.68;45.78;98624.84;5127672;27;42036;-76
2022/04/19 07:00:59;;;;;;;4.53;2.70;;;;;;;11.86;45.40;98630.69;5093134;28;42914;-76
2022/04/19 07:03:29;;;;;;;3.43;2.90;;;;;;;11.99;44.35;98628.00;5093418;28;42507;-75
2022/04/19 07:06:15;;;;;;;4.37;3.20;;;;;;;12.15;44.30;98639.19;5111061;28;43145;-77
2022/04/19 07:08:43;;;;;;;3.07;2.77;;;;;;;12.46;43.71;98643.97;5093545;28;38574;-77
2022/04/19 07:11:12;;;;;;;5.23;2.97;;;;;;;13.07;42.21;98643.84;5093018;28;42380;-76
2022/04/19 07:14:08;;;;;;;4.87;2.70;;;;;;;13.80;40.60;98648.81;5093176;28;42098;-77
2022/04/19 07:16:58;;;;;;;3.87;3.07;;;;;;;14.27;40.50;98647.69;5109611;28;42914;-77
2022/04/19 07:26:37;;;;;;;3.83;2.87;;;;;;;14.52;39.48;98658.06;5108337;28;40175;-76
2022/04/19 07:28:00;;;;;;;3.33;3.00;;;;;;;15.62;38.20;98667.50;5096754;28;41018;-77
2022/04/19 07:30:29;;;;;;;5.20;3.23;;;;;;;16.41;37.54;98663.19;5096767;28;39155;-76
2022/04/19 07:32:57;;;;;;;4.30;3.20;;;;;;;17.05;36.61;98666.25;5096751;28;42370;-76
2022/04/19 07:35:30;;;;;;;6.23;3.63;;;;;;;17.54;35.28;98669.72;5097008;28;42989;-75
2022/04/19 07:37:58;;;;;;;3.40;2.80;;;;;;;17.91;34.84;98676.00;5096706;28;42600;-75
2022/04/19 07:40:37;;;;;;;3.53;3.17;;;;;;;18.12;34.81;98670.41;5096699;28;40304;-75
2022/04/19 07:43:05;;;;;;;4.87;4.00;;;;;;;18.25;34.87;98673.59;5096294;28;41951;-75
2022/04/19 07:45:32;;;;;;;6.70;3.60;;;;;;;18.44;34.02;98686.03;5096586;28;41559;-75
2022/04/19 07:48:00;;;;;;;5.17;3.70;;;;;;;18.97;33.81;98678.09;5096361;28;41159;-75
2022/04/19 07:50:30;;;;;;;4.00;3.60;;;;;;;19.58;32.51;98688.03;5096331;28;41900;-75
2022/04/19 07:52:58;;;;;;;4.20;3.50;;;;;;;20.25;32.49;98673.00;5096389;28;40759;-76
2022/04/19 07:55:27;;;;;;;4.00;3.60;;;;;;;20.67;31.46;98680.22;5114493;28;42695;-76
2022/04/19 07:57:55;;;;;;;3.90;3.47;;;;;;;21.12;30.44;98680.66;5096023;28;41448;-75
2022/04/19 08:00:27;;;;;;;5.33;3.63;;;;;;;22.11;28.15;98703.88;5113284;28;39832;-76
2022/04/19 08:02:55;;;;;;;4.87;3.70;;;;;;;23.08;27.19;98708.03;5110220;28;42695;-77
2022/04/19 08:05:24;;;;;;;4.57;3.67;;;;;;;23.43;26.46;98693.06;5096101;28;41703;-76
2022/04/19 08:07:54;;;;;;;4.27;3.87;;;;;;;23.54;25.24;98698.91;5113085;28;42343;-76
2022/04/19 08:10:23;;;;;;;3.90;3.57;;;;;;;23.80;24.64;98719.31;5096081;28;39951;-75
2022/04/19 08:12:51;;;;;;;4.47;3.67;;;;;;;23.58;24.67;98704.81;5095527;28;42053;-76
2022/04/19 08:15:19;;;;;;;3.73;3.30;;;;;;;23.89;25.84;98702.81;5114180;28;43417;-76
2022/04/19 08:17:47;;;;;;;5.97;3.40;;;;;;;24.07;26.28;98671.88;5113112;28;42234;-76
2022/04/19 08:20:16;;;;;;;3.60;3.30;;;;;;;24.93;24.45;98700.97;5095209;28;38875;-77
2022/04/19 08:22:44;;;;;;;5.10;3.83;;;;;;;26.00;24.43;98704.47;5095707;28;42127;-76
2022/04/19 08:25:19;;;;;;;4.27;3.83;;;;;;;27.11;23.21;98703.41;5111113;28;43603;-77
2022/04/19 08:27:47;;;;;;;3.90;3.50;;;;;;;28.12;22.16;98710.41;5095688;28;41209;-75
2022/04/19 08:30:17;;;;;;;4.37;3.97;;;;;;;28.83;20.71;98715.09;5112631;28;40860;-76
2022/04/19 08:32:46;;;;;;;4.20;3.90;;;;;;;28.94;20.28;98709.81;5110027;28;41848;-75
2022/04/19 08:35:17;;;;;;;4.27;3.87;;;;;;;29.03;20.22;98709.56;5095562;28;41662;-76
2022/04/19 08:37:49;;;;;;;4.37;3.97;;;;;;;29.43;20.40;98705.56;5108839;28;42596;-76
2022/04/19 08:40:20;;;;;;;4.60;3.87;;;;;;;29.96;19.27;98706.00;5095583;28;41349;-75
2022/04/19 08:42:53;;;;;;;4.37;3.97;;;;;;;31.10;18.18;98711.94;5095881;28;40430;-77
2022/04/19 08:45:21;;;;;;;4.20;3.80;;;;;;;31.85;17.22;98720.53;5093801;28;41720;-76
2022/04/19 08:47:49;;;;;;;4.87;4.37;;;;;;;32.27;16.39;98710.34;5092406;28;43339;-75
2022/04/19 08:50:19;;;;;;;4.13;3.70;;;;;;;33.07;15.24;98713.19;5092238;28;40961;-76
2022/04/19 08:57:29;;;;;;;3.57;3.27;;;;;;;32.95;16.47;98709.66;5092183;28;40713;-76
2022/04/19 08:58:22;;;;;;;3.80;3.23;;;;;;;32.95;15.42;98710.47;5091940;28;42306;-77
2022/04/19 09:00:50;;;;;;;3.23;2.73;;;;;;;32.91;15.89;98708.44;5091993;28;40812;-77
2022/04/19 09:03:20;;;;;;;4.50;3.40;;;;;;;32.45;15.28;98721.16;5091794;28;40733;-75
2022/04/19 09:05:52;;;;;;;3.43;3.13;;;;;;;32.76;16.20;98700.78;5108995;28;43845;-76
2022/04/19 09:08:20;;;;;;;4.20;3.80;;;;;;;33.36;15.31;98711.31;5089799;28;42240;-76
2022/04/19 09:10:51;;;;;;;3.93;3.53;;;;;;;33.08;16.33;98693.72;5101137;28;40863;-78
2022/04/19 09:13:21;;;;;;;7.03;3.37;;;;;;;32.73;15.83;98706.72;5112503;28;41054;-76
2022/04/19 09:15:50;;;;;;;3.40;3.10;;;;;;;32.12;16.35;98694.34;5113494;28;43465;-76
2022/04/19 09:18:24;;;;;;;3.30;3.00;;;;;;;31.28;16.63;98693.56;5112286;28;41276;-78
2022/04/19 09:20:53;;;;;;;3.93;3.47;;;;;;;30.73;18.50;98679.16;5113040;28;40924;-76
2022/04/19 09:23:21;;;;;;;4.10;3.70;;;;;;;30.81;17.68;98684.31;5113137;28;41465;-76
2022/04/19 09:25:53;;;;;;;3.27;2.97;;;;;;;30.60;18.21;98674.69;5111933;28;43073;-75
2022/04/19 09:28:22;;;;;;;4.00;3.37;;;;;;;30.41;16.83;98669.44;5111571;28;43696;-77
2022/04/19 09:30:51;;;;;;;4.00;3.30;;;;;;;30.64;17.10;98680.53;5111683;28;41750;-77
2022/04/19 09:33:19;;;;;;;4.10;3.40;;;;;;;30.99;17.95;98664.31;5094996;28;41893;-75
2022/04/19 09:35:50;;;;;;;3.70;3.40;;;;;;;31.23;17.14;98670.72;5094724;28;44445;-76
2022/04/19 09:38:19;;;;;;;3.40;2.93;;;;;;;31.12;17.63;98668.78;5110061;28;42405;-77
2022/04/19 09:40:48;;;;;;;3.20;2.90;;;;;;;30.76;17.11;98673.22;5111564;28;39902;-77
2022/04/19 09:43:20;;;;;;;3.27;2.97;;;;;;;30.10;17.36;98659.47;5111314;28;42359;-76
2022/04/19 09:45:56;;;;;;;3.30;2.40;;;;;;;29.72;18.05;98643.19;5111626;28;42065;-76
2022/04/19 09:48:26;;;;;;;2.80;2.33;;;;;;;29.37;17.98;98665.50;5111886;28;42566;-77
2022/04/19 09:50:59;;;;;;;2.80;2.60;;;;;;;29.22;18.13;98660.34;5093572;28;40239;-77
2022/04/19 09:53:28;;;;;;;3.13;2.30;;;;;;;29.21;18.78;98646.94;5109663;28;42052;-78
2022/04/19 09:55:58;;;;;;;2.70;2.10;;;;;;;29.19;19.37;98638.13;5098922;28;41795;-75
2022/04/19 09:58:29;;;;;;;3.00;2.30;;;;;;;28.75;18.45;98648.00;5120264;28;42890;-76
2022/04/19 10:00:57;;;;;;;2.53;2.07;;;;;;;28.06;19.25;98636.94;5121719;28;40203;-77
2022/04/19 10:08:55;;;;;;;2.30;1.90;;;;;;;27.48;20.48;98620.41;5119763;28;42339;-75
2022/04/19 10:11:25;;;;;;;2.73;2.30;;;;;;;27.11;20.66;98616.41;5095540;28;39062;-77
2022/04/19 10:13:54;;;;;;;2.30;1.80;;;;;;;27.06;19.87;98636.09;5111355;28;40574;-78
2022/04/19 10:16:22;;;;;;;1.70;1.53;;;;;;;27.20;19.15;98638.81;5094225;28;41462;-77
2022/04/19 10:18:50;;;;;;;2.50;1.70;;;;;;;27.40;20.35;98613.31;5110883;28;43149;-79
2022/04/19 10:21:20;;;;;;;2.37;2.17;;;;;;;28.00;19.08;98635.88;5110979;28;40802;-75
2022/04/19 10:23:48;;;;;;;1.83;1.60;;;;;;;28.41;19.25;98626.59;5094106;28;43864;-78
2022/04/19 10:26:22;;;;;;;1.87;1.70;;;;;;;28.55;18.04;98652.72;5111154;28;41851;-76
2022/04/19 10:28:51;;;;;;;1.87;1.50;;;;;;;28.86;17.78;98641.91;5109334;28;42320;-78
2022/04/19 10:31:30;;;;;;;2.10;1.77;;;;;;;30.36;16.59;98646.34;5112178;28;40719;-77
2022/04/19 10:34:02;;;;;;;1.70;1.53;;;;;;;32.11;17.00;98638.72;5108102;28;42674;-78
2022/04/19 10:36:38;;;;;;;1.70;1.60;;;;;;;33.91;14.83;98652.91;5111099;28;42857;-76
2022/04/19 10:39:25;;;;;;;1.80;1.70;;;;;;;35.33;13.51;98657.56;5107820;28;42384;-74
2022/04/19 10:41:58;;;;;;;1.77;1.67;;;;;;;35.81;13.67;98643.69;5107922;28;40618;-79
2022/04/19 10:44:28;;;;;;;1.63;1.53;;;;;;;36.09;14.11;98642.50;5108347;28;41586;-75
2022/04/19 10:47:23;;;;;;;1.75;1.65;;;;;;;37.33;13.76;98633.38;5093722;28;41256;-78
2022/04/19 10:49:59;;;;;;;2.17;1.88;;;;;;;38.77;12.25;98638.44;5110318;28;41333;-78
2022/04/19 10:52:51;;;;;;;1.83;1.73;;;;;;;39.21;12.00;98637.63;5109025;28;39948;-78
2022/04/19 10:55:22;;;;;;;1.48;1.45;;;;;;;39.08;11.66;98622.47;5086497;28;41781;-79
2022/04/19 10:58:09;;;;;;;1.77;1.67;;;;;;;39.32;12.13;98633.72;5110418;28;43219;-79
2022/04/19 11:00:55;;;;;;;1.67;1.58;;;;;;;39.13;11.36;98639.91;5110515;27;43249;-77
2022/04/19 11:03:49;;;;;;;1.85;1.75;;;;;;;38.17;11.90;98629.22;5128480;27;41024;-78
2022/04/19 11:06:34;;;;;;;1.90;1.80;;;;;;;38.19;13.22;98609.56;5097022;28;40940;-77
2022/04/19 11:09:15;;;;;;;1.98;1.88;;;;;;;38.31;12.78;98604.56;5114030;28;41795;-80
2022/04/19 11:11:50;;;;;;;1.73;1.63;;;;;;;38.83;12.32;98603.22;5113971;28;42354;-78
2022/04/19 11:14:40;;;;;;;3.00;2.20;;;;;;;39.13;11.92;98603.91;5113507;28;42121;-79
2022/04/19 11:17:22;;;;;;;2.22;2.03;;;;;;;39.08;12.12;98589.25;5114081;28;40581;-79
2022/04/19 11:19:56;;;;;;;1.70;1.60;;;;;;;38.66;11.92;98604.44;5113498;28;41845;-77
2022/04/19 11:22:42;;;;;;;1.80;1.70;;;;;;;38.03;12.67;98601.28;5112354;28;43099;-79
2022/04/19 11:25:11;;;;;;;1.98;1.75;;;;;;;37.80;12.27;98590.84;5111746;28;40917;-80
2022/04/19 11:28:24;;;;;;;1.67;1.57;;;;;;;37.25;13.07;98589.72;5115122;28;42433;-78
2022/04/19 11:31:11;;;;;;;2.80;1.67;;;;;;;36.48;13.20;98578.72;5088353;28;42717;-78
2022/04/19 11:33:39;;;;;;;1.70;1.60;;;;;;;36.41;13.99;98565.19;5114908;28;43297;-76
2022/04/19 11:36:10;;;;;;;1.60;1.50;;;;;;;37.15;13.18;98578.63;5096550;28;39396;-77
2022/04/19 11:38:42;;;;;;;1.67;1.58;;;;;;;37.78;12.72;98559.88;5096633;28;40829;-79
2022/04/19 11:46:45;;;;;;;1.70;1.60;;;;;;;34.75;14.15;98560.00;5113591;28;40217;-76
2022/04/19 11:49:32;;;;;;;1.70;1.60;;;;;;;35.25;13.94;98566.06;5096533;28;43343;-79
2022/04/19 11:52:03;;;;;;;1.40;1.30;;;;;;;35.82;13.96;98559.06;5113612;28;44426;-77
2022/04/19 11:54:33;;;;;;;1.80;1.70;;;;;;;36.78;12.75;98556.75;5110590;28;42705;-81
2022/04/19 11:57:03;;;;;;;2.03;1.60;;;;;;;37.10;13.23;98542.72;5113662;28;38938;-78
2022/04/19 11:59:33;;;;;;;4.10;1.43;;;;;;;36.93;13.16;98553.19;5096369;28;42099;-78
2022/04/19 12:02:02;;;;;;;1.40;1.30;;;;;;;37.22;13.45;98546.06;5113161;28;42608;-77
2022/04/19 12:04:30;;;;;;;1.60;1.50;;;;;;;38.59;11.99;98534.69;5112776;28;42183;-77
2022/04/19 12:07:01;;;;;;;1.50;1.40;;;;;;;39.94;11.52;98555.25;5113322;28;39909;-77
2022/04/19 12:09:32;;;;;;;1.50;1.40;;;;;;;39.85;11.63;98554.25;5096348;28;40861;-79
2022/04/19 12:12:02;;;;;;;1.73;1.63;;;;;;;40.54;11.92;98544.56;5110907;27;43979;-79
2022/04/19 12:14:31;;;;;;;1.35;1.25;;;;;;;40.71;11.41;98547.69;5112349;28;40975;-79
2022/04/19 12:17:00;;;;;;;1.67;1.58;;;;;;;41.03;11.81;98529.44;5114443;28;40765;-78
2022/04/19 12:19:38;;;;;;;3.50;1.60;;;;;;;39.90;11.46;98539.53;5114309;28;42684;-78
2022/04/19 12:22:20;;;;;;;1.60;1.50;;;;;;;39.38;11.70;98539.13;5110085;28;42850;-80
2022/04/19 12:24:53;;;;;;;1.42;1.40;;;;;;;39.90;11.38;98539.53;5110254;28;42373;-79
2022/04/19 12:27:26;;;;;;;2.08;1.40;;;;;;;40.57;10.87;98530.06;5095856;28;39829;-78
2022/04/19 12:30:01;;;;;;;1.67;1.43;;;;;;;39.49;12.30;98526.88;5112452;28;41438;-77